Date,TemperatureHighF,TemperatureAvgF,TemperatureLowF,DewpointHighF,DewpointAvgF,DewpointLowF,HumidityHigh,HumidityAvg,HumidityLow,PressureMaxIn,PressureMinIn,WindSpeedMaxMPH,WindSpeedAvgMPH,GustSpeedMaxMPH,PrecipitationSumIn
2013-1-1,46,43,38,45,37,20,99,81,42,30.10,29.92,0,0,0,0.29
2013-1-2,42,36,33,42,35,32,99,96,88,30.12,29.88,0,0,0,0.02
2013-1-3,37,32,28,37,31,25,99,93,80,30.29,30.08,0,0,0,0.00
2013-1-4,37,29,25,26,22,18,89,74,48,30.38,30.28,0,0,0,0.00
2013-1-5,46,35,24,29,22,19,81,61,35,30.40,30.21,0,0,0,0.00
2013-1-6,44,38,34,38,33,27,94,83,70,30.22,30.04,0,0,0,0.00
2013-1-7,49,37,27,31,27,23,92,70,39,30.39,30.20,0,0,0,0.00
2013-1-8,50,42,32,44,34,26,91,76,58,30.42,30.31,0,0,0,0.00
2013-1-9,56,50,46,52,48,44,100,94,84,30.42,30.33,0,0,0,0.00
2013-1-10,61,54,48,54,51,44,98,88,74,30.42,30.23,0,0,0,0.00
2013-1-11,56,51,46,56,51,44,100,99,88,30.23,30.07,0,0,0,0.04
2013-1-12,69,60,56,61,58,55,100,90,69,30.12,29.99,0,0,0,0.01
2013-1-13,66,60,56,58,56,54,97,88,72,30.03,29.93,0,0,0,0.02
2013-1-14,57,51,39,57,51,39,100,99,97,30.11,29.94,0,0,0,1.22
2013-1-15,51,47,40,51,47,39,100,100,99,30.09,29.95,0,0,0,0.84
2013-1-16,53,50,46,53,50,46,100,99,97,29.99,29.88,0,0,0,0.23
2013-1-17,50,38,28,50,38,28,100,100,99,30.19,29.74,0,0,0,1.52
2013-1-18,42,32,24,32,27,22,99,83,54,30.52,30.19,0,0,0,0.10
2013-1-19,51,40,30,31,26,18,81,60,29,30.47,30.15,0,0,0,0.02
2013-1-20,52,43,38,35,28,18,71,57,42,30.15,30.03,0,0,0,0.00
2013-1-21,47,38,26,30,24,13,79,58,41,30.07,29.94,0,0,0,0.00
2013-1-22,27,22,16,14,4,-4,69,48,27,30.27,30.00,0,0,0,0.00
2013-1-23,39,30,21,26,15,1,70,55,42,30.36,30.08,0,0,0,0.00
2013-1-24,38,30,21,31,16,5,81,58,35,30.37,30.00,0,0,0,0.00
2013-1-25,36,25,18,36,20,5,99,80,53,30.40,30.11,0,0,0,0.02
2013-1-26,43,34,28,35,27,23,99,78,46,30.33,30.14,0,0,0,0.00
2013-1-27,42,33,26,31,28,22,94,81,64,30.48,30.32,0,0,0,0.03
2013-1-28,62,48,33,50,41,31,94,78,57,30.42,30.20,0,0,0,0.01
2013-1-29,68,57,49,56,48,41,97,75,49,30.20,29.91,0,0,0,0.02
2013-1-30,59,54,41,58,53,39,100,98,93,29.91,29.40,0,0,0,2.23
2013-1-31,41,32,26,39,25,20,96,76,57,30.00,29.45,0,0,0,0.05
2013-2-1,37,23,16,30,15,8,94,71,54,30.37,29.92,0,0,0,0.00
2013-2-2,39,28,18,31,18,4,97,67,42,30.37,30.04,0,0,0,0.00
2013-2-3,41,31,25,34,27,21,96,84,62,30.04,29.90,0,0,0,0.05
2013-2-4,47,35,23,28,22,17,87,63,39,30.13,29.97,0,0,0,0.00
2013-2-5,51,44,38,39,30,22,72,59,49,29.98,29.89,0,0,0,0.00
2013-2-6,54,45,36,37,28,21,83,55,29,30.19,29.96,0,0,0,0.00
2013-2-7,45,40,37,39,31,20,97,72,36,30.18,29.94,0,0,0,0.38
2013-2-8,47,38,30,42,36,27,100,92,68,30.12,29.89,0,0,0,0.02
2013-2-9,52,38,25,28,23,16,94,62,27,30.33,30.08,0,0,0,0.00
2013-2-10,47,42,37,44,27,20,99,60,39,30.32,30.07,0,0,0,0.22
2013-2-11,53,47,43,51,42,24,100,85,44,30.11,29.97,0,0,0,0.02
2013-2-12,48,41,35,36,28,20,94,62,37,30.09,29.86,0,0,0,0.18
2013-2-13,45,37,32,43,36,30,99,95,80,29.88,29.62,0,0,0,0.14
2013-2-14,50,38,29,32,28,22,94,69,39,30.04,29.88,0,0,0,0.00
2013-2-15,54,40,30,37,31,28,96,72,38,30.07,29.92,0,0,0,0.00
2013-2-16,32,27,20,28,22,13,96,84,56,30.00,29.84,0,0,0,0.01
2013-2-17,32,24,17,15,11,9,77,60,42,30.29,30.00,0,0,0,0.00
2013-2-18,48,36,24,26,19,10,59,50,39,30.37,30.13,0,0,0,0.00
2013-2-19,51,38,30,42,28,15,97,66,40,30.15,29.85,0,0,0,0.01
2013-2-20,42,32,26,18,10,-1,63,42,19,30.15,30.01,0,0,0,0.00
2013-2-21,58,40,26,34,15,4,94,41,12,30.22,30.06,0,0,0,0.22
2013-2-22,40,36,32,40,35,30,99,95,85,30.21,30.05,0,0,0,0.24
2013-2-23,52,46,37,50,43,36,100,92,64,30.07,29.80,0,0,0,0.20
2013-2-24,51,42,35,40,30,22,95,65,34,30.02,29.81,0,0,0,0.00
2013-2-25,43,37,31,29,25,22,89,61,48,30.07,29.94,0,0,0,0.00
2013-2-26,38,33,29,38,32,28,99,97,89,29.95,29.63,0,0,0,0.42
2013-2-27,51,40,33,36,33,30,97,79,53,29.79,29.64,0,0,0,0.00
2013-2-28,37,31,28,33,27,24,96,85,72,29.91,29.68,0,0,0,0.01
2013-3-1,35,30,27,31,28,25,98,93,82,29.96,29.88,0,0,0,0.01
2013-3-2,35,28,23,30,26,20,97,91,74,29.96,29.86,0,0,0,0.02
2013-3-3,29,23,20,20,18,15,93,79,62,30.06,29.94,0,0,0,0.01
2013-3-4,48,34,21,25,16,11,83,54,23,30.18,30.05,0,0,0,0.01
2013-3-5,46,41,31,45,35,25,99,80,52,30.08,29.61,0,0,0,0.82
2013-3-6,31,25,22,29,24,21,97,96,89,30.21,29.63,0,0,0,0.00
2013-3-7,36,28,24,32,26,23,97,92,83,30.32,30.19,0,0,0,0.06
2013-3-8,46,33,23,30,25,22,95,75,48,30.37,30.28,0,0,0,0.01
2013-3-9,59,46,32,31,25,16,76,45,29,30.33,30.21,0,0,0,0.00
2013-3-10,60,51,45,36,32,27,56,47,37,30.21,30.07,0,0,0,0.00
2013-3-11,52,48,45,49,46,35,100,91,55,30.09,29.77,0,0,0,0.70
2013-3-12,50,41,34,50,37,32,100,88,67,30.02,29.73,0,0,0,0.24
2013-3-13,43,35,26,32,25,17,85,70,44,30.16,30.00,0,0,0,0.00
2013-3-14,43,30,21,19,16,12,81,58,31,30.31,30.14,0,0,0,0.00
2013-3-15,65,48,32,42,31,15,78,55,27,30.23,29.91,0,0,0,0.00
2013-3-16,74,61,52,47,44,41,66,54,36,29.91,29.68,0,0,0,0.00
2013-3-17,70,59,43,49,46,42,95,64,40,29.87,29.75,0,0,0,0.00
2013-3-18,43,39,34,43,38,34,100,99,94,29.95,29.81,0,0,0,0.50
2013-3-19,53,43,34,43,31,13,99,67,34,30.06,29.85,0,0,0,0.01
2013-3-20,50,38,27,29,15,9,94,41,22,30.08,29.82,0,0,0,0.00
2013-3-21,33,25,18,25,15,12,94,66,44,29.99,29.76,0,0,0,0.01
2013-3-22,46,33,21,27,15,11,69,50,26,30.07,29.98,0,0,0,0.00
2013-3-23,54,43,34,43,36,25,92,77,58,30.04,29.81,0,0,0,0.04
2013-3-24,43,38,35,41,38,34,99,96,85,29.87,29.46,0,0,0,0.55
2013-3-25,36,31,26,35,26,22,99,83,60,29.90,29.51,0,0,0,0.02
2013-3-26,34,27,24,30,25,23,97,92,82,30.23,29.88,0,0,0,0.03
2013-3-27,39,31,26,28,25,22,96,80,60,30.31,30.20,0,0,0,0.03
2013-3-28,48,36,27,26,22,20,80,60,35,30.32,30.24,0,0,0,0.00
2013-3-29,54,40,32,37,27,17,96,64,26,30.32,30.23,0,0,0,0.06
2013-3-30,59,47,37,46,40,36,98,78,53,30.23,30.01,0,0,0,0.24
2013-3-31,61,50,44,53,48,40,100,90,65,30.01,29.79,0,0,0,0.33
2013-4-1,61,49,42,47,42,32,98,77,48,29.94,29.81,0,0,0,0.03
2013-4-2,52,42,33,32,24,16,78,52,26,30.13,29.93,0,0,0,0.00
2013-4-3,56,44,32,25,20,14,57,40,22,30.22,30.12,0,0,0,0.00
2013-4-4,45,36,32,35,28,14,99,76,34,30.20,29.96,0,0,0,0.32
2013-4-5,54,41,35,44,37,34,100,86,56,30.09,29.94,0,0,0,0.00
2013-4-6,63,52,41,38,34,30,79,53,30,30.20,30.08,0,0,0,0.00
2013-4-7,66,56,45,45,39,32,67,55,41,30.14,30.02,0,0,0,0.00
2013-4-8,70,61,54,52,48,44,73,62,49,30.07,29.97,0,0,0,0.00
2013-4-9,78,66,56,56,53,48,80,63,43,30.12,30.00,0,0,0,0.00
2013-4-10,81,69,59,56,53,48,78,60,32,30.02,29.84,0,0,0,0.00
2013-4-11,73,65,58,61,55,52,99,72,49,29.86,29.57,0,0,0,0.43
2013-4-12,63,57,48,59,50,38,100,81,51,29.81,29.53,0,0,0,1.12
2013-4-13,48,48,47,38,37,37,68,67,66,29.83,29.81,0,0,0,0.00
2013-4-14,61,56,52,48,44,39,87,65,44,29.98,29.88,0,0,0,0.00
2013-4-15,67,55,48,57,52,47,100,89,63,30.14,29.88,0,0,0,0.03
2013-4-16,76,63,55,59,56,52,97,78,48,30.22,30.10,0,0,0,0.00
2013-4-17,73,62,58,63,58,55,98,86,69,30.16,30.04,0,0,0,0.19
2013-4-18,69,63,58,60,57,54,95,80,59,30.04,29.84,0,0,0,0.01
2013-4-19,63,56,39,61,54,36,99,95,87,29.86,29.63,0,0,0,0.06
2013-4-20,55,43,32,36,31,28,90,65,42,30.28,29.86,0,0,0,0.02
2013-4-21,58,48,40,37,31,26,69,53,34,30.39,30.26,0,0,0,0.01
2013-4-22,60,49,39,41,37,30,88,64,43,30.34,30.15,0,0,0,0.01
2013-4-23,70,55,42,45,37,27,71,52,25,30.21,30.03,0,0,0,0.00
2013-4-24,59,54,46,57,50,45,96,86,71,30.06,29.94,0,0,0,0.04
2013-4-25,63,50,38,45,33,11,96,62,15,30.29,30.03,0,0,0,0.01
2013-4-26,65,54,42,43,33,27,68,46,31,30.37,30.23,0,0,0,0.01
2013-4-27,54,50,47,50,46,38,99,87,57,30.32,30.17,0,0,0,0.00
2013-4-28,50,48,44,50,47,42,100,97,87,30.20,29.94,0,0,0,0.00
2013-4-29,70,57,48,58,52,47,100,85,45,30.03,29.88,0,0,0,0.01
2013-4-30,71,60,53,58,54,52,99,82,54,30.07,29.91,0,0,0,0.01
2013-5-1,64,56,51,54,52,50,96,87,65,30.19,30.07,0,0,0,0.01
2013-5-2,62,53,49,56,51,49,99,95,79,30.22,30.14,0,0,0,0.00
2013-5-3,50,49,48,50,49,47,99,98,94,30.17,30.08,0,0,0,0.01
2013-5-6,51,48,46,44,44,42,91,86,77,29.85,29.80,0,0,0,0.00
2013-5-7,64,52,43,50,46,42,97,83,52,29.91,29.81,0,0,0,0.00
2013-5-8,64,55,48,57,52,48,99,91,68,30.00,29.87,0,0,0,0.00
2013-5-9,75,62,50,60,53,49,99,75,45,30.07,29.97,0,0,0,0.00
2013-5-10,75,64,58,62,56,52,86,76,54,30.04,29.86,0,0,0,0.01
2013-5-11,72,62,54,61,56,52,96,83,64,29.90,29.76,0,0,0,0.00
2013-5-12,60,52,46,52,42,31,96,71,43,30.02,29.81,0,0,0,0.01
2013-5-13,60,48,39,35,32,27,76,55,31,30.17,30.01,0,0,0,0.00
2013-5-14,71,56,42,50,40,31,72,55,34,30.21,30.03,0,0,0,0.00
2013-5-15,83,70,58,59,52,49,76,56,34,30.06,29.91,0,0,0,0.00
2013-5-16,76,67,62,57,53,50,75,61,46,29.96,29.89,0,0,0,0.00
2013-5-17,76,67,59,62,56,53,85,70,51,30.03,29.94,0,0,0,0.00
2013-5-18,64,61,58,62,59,55,100,94,75,30.02,29.96,0,0,0,0.00
2013-5-19,72,63,59,68,62,59,100,95,79,30.05,29.94,0,0,0,0.00
2013-5-20,68,66,64,65,63,62,94,92,87,29.98,29.95,0,0,0,0.00
2013-5-21,82,70,61,67,63,58,97,80,48,29.98,29.85,0,0,0,0.00
2013-5-22,76,64,57,69,62,56,98,92,72,29.91,29.78,0,0,0,0.00
2013-5-23,76,64,56,63,58,53,100,85,52,29.88,29.79,0,0,0,0.00
2013-5-24,62,56,50,53,46,37,96,73,47,30.17,29.84,0,0,0,0.00
2013-5-25,71,56,42,43,39,27,84,57,22,30.28,30.16,0,0,0,0.00
2013-5-26,71,60,51,51,46,39,88,60,39,30.21,30.12,0,0,0,0.00
2013-5-27,74,64,54,61,54,47,84,71,58,30.19,30.07,0,0,0,0.00
2013-5-28,77,68,60,65,59,56,90,75,54,30.13,30.05,0,0,0,0.00
2013-5-29,79,68,59,64,60,53,95,76,45,30.15,30.06,0,0,0,0.00
2013-5-30,77,68,60,64,60,58,95,79,59,30.19,30.08,0,0,0,0.00
2013-5-31,76,68,62,64,61,58,94,77,58,30.14,30.03,0,0,0,0.00
2013-6-1,77,69,63,65,62,60,93,79,59,30.04,29.93,0,0,0,0.00
2013-6-2,66,63,61,64,62,61,100,98,91,29.97,29.84,0,0,0,0.00
2013-6-3,77,66,60,66,61,59,100,85,60,29.91,29.81,0,0,0,0.00
2013-6-4,73,66,59,66,61,57,95,85,71,29.99,29.88,0,0,0,0.00
2013-6-5,74,66,61,67,63,60,99,90,73,30.01,29.86,0,0,0,0.00
2013-6-6,71,65,60,69,64,60,100,97,88,29.92,29.71,0,0,0,0.00
2013-6-7,77,66,60,69,64,58,100,93,72,29.76,29.61,0,0,0,0.00
2013-6-8,76,66,57,67,61,57,100,86,62,30.03,29.76,0,0,2,0.01
2013-6-9,75,65,62,69,64,61,100,96,79,30.07,29.95,0,0,0,0.01
2013-6-10,74,65,60,66,62,58,100,91,65,29.96,29.83,0,0,0,0.00
2013-6-11,78,69,61,66,62,60,98,82,59,29.95,29.88,0,0,0,0.00
2013-6-12,85,75,66,74,67,61,87,77,56,29.96,29.84,0,0,0,0.00
2013-6-13,86,71,63,70,65,62,97,81,49,29.84,29.63,0,0,0,0.00
2013-6-14,74,64,56,62,56,52,98,76,55,30.00,29.72,0,0,0,0.02
2013-6-15,63,58,56,54,53,51,88,82,67,30.05,29.99,0,0,0,0.00